Time;durP1;ratioP1;P1;durP2;ratioP2;P2;SDS_P1;SDS_P2;PMS_P1;PMS_P2;Temp;Humidity;BMP_temperature;BMP_pressure;BME280_temperature;BME280_humidity;BME280_pressure;Samples;Min_cycle;Max_cycle;Signal;HPM_P1;HPM_P2
2021/09/12 00:03:02;;;;;;;689.72;639.10;;;;;;;13.44;94.15;94747.56;10484789;28;20086;-74
2021/09/12 00:08:04;;;;;;;702.22;654.38;;;;;;;13.29;100.00;94745.84;10485419;28;20167;-74
2021/09/12 00:13:04;;;;;;;712.95;664.25;;;;;;;13.09;97.94;94740.69;10486075;28;20030;-73
2021/09/12 00:18:04;;;;;;;623.00;581.23;;;;;;;13.03;99.45;94742.66;10486161;28;20455;-73
2021/09/12 00:23:05;;;;;;;343.17;322.53;;;;;;;13.04;100.00;94744.25;10484599;28;20294;-73
2021/09/12 00:28:05;;;;;;;331.60;311.70;;;;;;;12.93;100.00;94740.88;10486172;28;20029;-74
2021/09/12 00:33:06;;;;;;;461.53;433.57;;;;;;;12.81;100.00;94744.00;10486451;28;20078;-73
2021/09/12 00:38:08;;;;;;;330.52;311.98;;;;;;;12.75;100.00;94747.81;10484766;28;20357;-73
2021/09/12 00:43:09;;;;;;;473.55;445.02;;;;;;;12.55;100.00;94748.84;10484711;28;20035;-74
2021/09/12 00:48:11;;;;;;;381.35;359.27;;;;;;;12.62;100.00;94752.00;10493347;28;20036;-73
2021/09/12 00:53:13;;;;;;;649.45;606.78;;;;;;;12.53;100.00;94748.34;10494130;28;20389;-73
2021/09/12 00:58:15;;;;;;;773.85;721.38;;;;;;;12.58;100.00;94747.47;10493919;28;20139;-73
2021/09/12 01:03:15;;;;;;;661.13;617.70;;;;;;;12.34;100.00;94755.53;10492451;28;20125;-73
2021/09/12 01:08:17;;;;;;;869.78;809.03;;;;;;;12.23;100.00;94746.72;10493651;28;20039;-73
2021/09/12 01:13:18;;;;;;;17.33;14.60;;;;;;;12.14;100.00;94749.22;10493846;28;20029;-73
2021/09/12 01:18:18;;;;;;;6.67;4.13;;;;;;;12.27;100.00;94755.84;10492256;28;20024;-73
2021/09/12 01:23:19;;;;;;;10.87;4.63;;;;;;;12.17;100.00;94759.44;10492951;28;20028;-73
2021/09/12 01:28:19;;;;;;;5.60;3.77;;;;;;;12.05;100.00;94757.09;10492819;28;20082;-73
2021/09/12 01:33:19;;;;;;;6.23;3.80;;;;;;;11.96;100.00;94764.19;10492430;28;20034;-73
2021/09/12 01:38:20;;;;;;;7.43;3.77;;;;;;;11.99;100.00;94760.94;10491071;28;20861;-73
2021/09/12 01:43:20;;;;;;;13.93;4.30;;;;;;;11.84;100.00;94761.00;10492338;28;20286;-73
2021/09/12 01:48:20;;;;;;;10.77;4.25;;;;;;;11.83;100.00;94757.50;10492525;28;20442;-73
2021/09/12 01:53:21;;;;;;;459.70;432.93;;;;;;;11.85;100.00;94755.34;10492007;28;20436;-73
2021/09/12 01:58:21;;;;;;;7.47;4.33;;;;;;;11.85;100.00;94749.94;10489964;28;20316;-73
2021/09/12 02:03:21;;;;;;;6.03;3.80;;;;;;;11.86;100.00;94756.97;10491601;28;20075;-73
2021/09/12 02:08:22;;;;;;;7.63;4.23;;;;;;;11.91;100.00;94756.09;10491164;28;20089;-73
2021/09/12 02:13:23;;;;;;;5.82;4.38;;;;;;;11.74;100.00;94757.28;10491182;28;20353;-73
2021/09/12 02:18:23;;;;;;;14.30;12.90;;;;;;;11.68;100.00;94758.44;10490664;28;20020;-74
2021/09/12 02:23:23;;;;;;;31.73;28.57;;;;;;;11.61;100.00;94756.03;10490584;28;20131;-73
2021/09/12 02:28:24;;;;;;;17.95;16.05;;;;;;;11.50;100.00;94749.09;10490270;28;20036;-73
2021/09/12 02:33:24;;;;;;;32.50;29.90;;;;;;;11.58;100.00;94751.22;10490194;28;20033;-73
2021/09/12 02:38:24;;;;;;;26.27;24.17;;;;;;;11.55;100.00;94761.72;10490374;28;20020;-73
2021/09/12 02:43:29;;;;;;;90.07;85.17;;;;;;;11.54;100.00;94752.84;10490132;28;20645;-73
2021/09/12 02:48:30;;;;;;;19.70;18.08;;;;;;;11.48;100.00;94748.56;10489647;28;20284;-73
2021/09/12 02:53:30;;;;;;;31.17;29.43;;;;;;;11.44;100.00;94752.91;10489227;28;20025;-73
2021/09/12 02:58:30;;;;;;;634.00;583.83;;;;;;;11.17;100.00;94747.94;10489253;28;20465;-73
2021/09/12 03:03:31;;;;;;;7.43;4.20;;;;;;;10.92;100.00;94746.97;10488747;28;20067;-73
2021/09/12 03:08:31;;;;;;;6.60;4.32;;;;;;;10.79;100.00;94745.66;10488838;28;20033;-73
2021/09/12 03:13:31;;;;;;;9.83;4.20;;;;;;;10.73;100.00;94755.63;10488744;28;20020;-73
2021/09/12 03:18:32;;;;;;;6.07;4.28;;;;;;;10.74;100.00;94748.34;10488717;28;20270;-73
2021/09/12 03:23:32;;;;;;;7.67;3.73;;;;;;;10.83;100.00;94760.16;10488370;28;20028;-73
2021/09/12 03:28:32;;;;;;;6.50;4.27;;;;;;;10.96;100.00;94764.16;10486565;28;20028;-73
2021/09/12 03:33:33;;;;;;;4.43;4.03;;;;;;;11.02;100.00;94773.81;10487933;28;20035;-73
2021/09/12 03:38:33;;;;;;;7.50;4.63;;;;;;;11.09;100.00;94763.56;10487562;28;20024;-73
2021/09/12 03:43:34;;;;;;;7.27;4.13;;;;;;;10.89;100.00;94758.28;10484766;28;20032;-73
2021/09/12 03:48:34;;;;;;;7.03;4.87;;;;;;;10.73;100.00;94758.31;10485748;28;20021;-73
2021/09/12 03:53:34;;;;;;;9.23;4.40;;;;;;;10.60;100.00;94767.75;10484751;28;21006;-73
2021/09/12 03:58:35;;;;;;;8.65;5.53;;;;;;;10.49;100.00;94771.53;10485994;28;20291;-73
2021/09/12 04:03:35;;;;;;;5.40;3.60;;;;;;;10.39;100.00;94771.56;10486144;28;20188;-73
2021/09/12 04:08:36;;;;;;;12.95;5.07;;;;;;;10.19;100.00;94777.72;10485720;28;20028;-73
2021/09/12 04:13:36;;;;;;;10.02;4.65;;;;;;;9.98;100.00;94780.41;10486519;28;20023;-73
2021/09/12 04:18:37;;;;;;;15.67;5.20;;;;;;;10.00;100.00;94778.25;10485122;28;20539;-73
2021/09/12 04:23:37;;;;;;;7.30;4.45;;;;;;;10.11;100.00;94787.13;10486081;28;20287;-73
2021/09/12 04:28:37;;;;;;;8.80;4.83;;;;;;;10.23;100.00;94787.66;10486522;28;20029;-73
2021/09/12 04:33:38;;;;;;;8.43;4.53;;;;;;;10.37;100.00;94784.47;10484868;28;20491;-73
2021/09/12 04:38:39;;;;;;;10.15;3.88;;;;;;;10.43;100.00;94786.06;10484507;28;20688;-73
2021/09/12 04:43:39;;;;;;;10.63;4.38;;;;;;;10.38;100.00;94781.50;10486109;28;20047;-73
2021/09/12 04:48:40;;;;;;;11.80;5.78;;;;;;;10.35;100.00;94775.84;10486043;28;20042;-74
2021/09/12 04:53:40;;;;;;;7.57;5.17;;;;;;;10.43;100.00;94789.53;10485637;28;20028;-74
2021/09/12 04:58:41;;;;;;;6.22;4.45;;;;;;;10.65;100.00;94793.03;10485526;28;20124;-74
2021/09/12 05:03:42;;;;;;;21.20;4.97;;;;;;;10.94;100.00;94796.69;10484139;28;20040;-74
2021/09/12 05:08:42;;;;;;;11.27;4.93;;;;;;;11.07;100.00;94802.59;10483952;28;20040;-74
2021/09/12 05:13:42;;;;;;;8.90;5.53;;;;;;;11.17;100.00;94802.53;10484481;28;20020;-75
2021/09/12 05:18:43;;;;;;;11.80;5.93;;;;;;;11.42;100.00;94796.22;10484458;28;20036;-74
2021/09/12 05:23:44;;;;;;;11.63;5.63;;;;;;;11.57;100.00;94799.94;10484591;28;20021;-74
2021/09/12 05:28:44;;;;;;;6.82;4.70;;;;;;;11.75;100.00;94799.28;10484221;28;20024;-74
2021/09/12 05:33:44;;;;;;;8.60;5.37;;;;;;;12.13;100.00;94796.91;10489852;28;20021;-74
2021/09/12 05:38:45;;;;;;;11.17;4.77;;;;;;;12.73;100.00;94797.75;10491833;28;20274;-74
2021/09/12 05:43:45;;;;;;;8.73;4.53;;;;;;;13.19;100.00;94801.84;10491695;28;20553;-74
2021/09/12 05:48:46;;;;;;;6.65;3.97;;;;;;;13.30;100.00;94800.63;10491613;28;20027;-74
2021/09/12 05:53:46;;;;;;;9.33;4.00;;;;;;;13.97;100.00;94799.78;10491334;28;20028;-74
2021/09/12 05:58:46;;;;;;;7.73;4.33;;;;;;;13.96;100.00;94801.66;10490999;28;20051;-74
2021/09/12 06:03:47;;;;;;;6.80;4.27;;;;;;;14.26;100.00;94791.50;10489975;28;20056;-74
2021/09/12 06:08:47;;;;;;;8.85;4.30;;;;;;;14.59;100.00;94794.19;10491210;28;20274;-74
2021/09/12 06:13:48;;;;;;;9.10;3.60;;;;;;;14.77;100.00;94792.56;10490138;28;20810;-74
2021/09/12 06:18:48;;;;;;;11.37;4.70;;;;;;;14.93;97.61;94803.91;10490050;28;20028;-74
2021/09/12 06:23:48;;;;;;;7.70;4.83;;;;;;;15.38;95.06;94803.31;10489970;28;20115;-72
2021/09/12 06:28:49;;;;;;;8.80;4.80;;;;;;;15.73;85.81;94804.47;10487675;28;20266;-73
2021/09/12 06:33:49;;;;;;;13.95;4.70;;;;;;;16.32;80.38;94798.31;10487958;28;20027;-73
2021/09/12 06:38:50;;;;;;;5.93;4.20;;;;;;;16.86;79.04;94800.25;10488854;28;20024;-73
2021/09/12 06:43:50;;;;;;;10.07;5.03;;;;;;;16.85;77.88;94798.66;10487608;28;20381;-74
2021/09/12 06:48:50;;;;;;;12.10;4.78;;;;;;;17.35;73.78;94801.13;10487234;28;20745;-74
2021/09/12 06:53:51;;;;;;;11.50;4.87;;;;;;;17.57;72.74;94797.53;10487899;28;20035;-74
2021/09/12 06:58:51;;;;;;;16.20;4.40;;;;;;;18.40;65.99;94792.34;10488119;28;20122;-74
2021/09/12 07:03:51;;;;;;;8.23;4.40;;;;;;;19.25;60.40;94799.06;10489043;28;20111;-74
2021/09/12 07:08:52;;;;;;;11.40;4.30;;;;;;;20.51;54.59;94801.16;10489060;28;20028;-74
2021/09/12 07:13:52;;;;;;;13.00;5.05;;;;;;;22.67;47.56;94794.38;10489101;28;20324;-74
2021/09/12 07:18:53;;;;;;;10.87;4.10;;;;;;;25.44;40.07;94790.00;10488566;28;20024;-74
2021/09/12 07:23:54;;;;;;;11.63;4.43;;;;;;;26.52;36.85;94778.59;10488348;28;20028;-74
2021/09/12 07:28:55;;;;;;;10.05;4.10;;;;;;;26.60;35.66;94785.00;10488595;28;20103;-74
2021/09/12 07:33:55;;;;;;;6.13;3.80;;;;;;;27.93;33.77;94780.00;10487975;28;20475;-74
2021/09/12 07:38:55;;;;;;;11.80;4.20;;;;;;;29.19;32.63;94774.28;10487109;28;20442;-74
2021/09/12 07:43:56;;;;;;;9.63;5.30;;;;;;;30.06;31.57;94766.81;10488498;28;20275;-74
2021/09/12 07:48:56;;;;;;;9.30;3.00;;;;;;;30.56;28.97;94763.13;10488191;28;20082;-75
2021/09/12 07:53:57;;;;;;;16.00;3.33;;;;;;;29.98;29.74;94760.50;10485950;28;20096;-74
2021/09/12 07:58:57;;;;;;;10.30;2.90;;;;;;;31.92;28.95;94750.41;10487500;28;20102;-74
2021/09/12 08:03:57;;;;;;;7.17;2.70;;;;;;;32.38;27.51;94753.94;10487313;28;20041;-75
2021/09/12 08:08:58;;;;;;;4.67;2.70;;;;;;;32.70;26.77;94753.56;10486921;28;20472;-74
2021/09/12 08:13:58;;;;;;;4.40;2.90;;;;;;;32.80;27.18;94740.72;10486577;28;20024;-74
2021/09/12 08:18:59;;;;;;;22.43;3.97;;;;;;;32.92;27.51;94741.38;10487194;28;20024;-74
2021/09/12 08:23:59;;;;;;;9.70;3.08;;;;;;;31.08;28.98;94746.66;10486894;28;20028;-75
2021/09/12 08:29:00;;;;;;;7.93;3.27;;;;;;;29.22;31.65;94743.03;10486637;28;20052;-74
2021/09/12 08:34:00;;;;;;;11.30;3.67;;;;;;;29.38;31.89;94731.63;10486923;28;20100;-74
2021/09/12 08:39:01;;;;;;;9.03;3.50;;;;;;;31.47;29.59;94728.94;10486349;28;20898;-74
2021/09/12 08:44:02;;;;;;;15.77;3.28;;;;;;;33.63;27.25;94722.03;10487093;28;20396;-74
2021/09/12 08:49:02;;;;;;;6.13;2.40;;;;;;;34.98;24.63;94714.31;10487655;28;20096;-75
2021/09/12 08:54:02;;;;;;;6.00;2.73;;;;;;;32.05;28.87;94714.53;10487202;28;20024;-74
2021/09/12 08:59:03;;;;;;;7.53;3.05;;;;;;;29.57;30.46;94706.31;10486906;28;20385;-73
2021/09/12 09:04:04;;;;;;;9.63;3.22;;;;;;;28.55;31.37;94709.28;10487236;28;20025;-73
2021/09/12 09:09:05;;;;;;;6.88;3.72;;;;;;;29.35;31.46;94694.44;10493433;28;20033;-73
2021/09/12 09:14:17;;;;;;;12.25;4.22;;;;;;;32.59;27.89;94693.69;10494820;28;20024;-73
2021/09/12 09:19:18;;;;;;;7.15;3.20;;;;;;;30.77;28.92;94687.34;10494832;28;20090;-74
2021/09/12 09:24:23;;;;;;;10.23;3.47;;;;;;;29.25;31.78;94684.97;10493920;28;20028;-73
2021/09/12 09:29:25;;;;;;;11.57;4.07;;;;;;;28.85;31.65;94684.09;10494081;28;20506;-73
2021/09/12 09:34:25;;;;;;;13.05;4.13;;;;;;;28.72;31.91;94685.66;10493768;28;20027;-73
2021/09/12 09:39:46;;;;;;;16.03;4.13;;;;;;;29.56;31.69;94679.78;10494178;28;20035;-73
2021/09/12 09:44:57;;;;;;;8.75;2.90;;;;;;;31.81;25.14;94667.13;10493685;28;20036;-73
2021/09/12 09:50:15;;;;;;;8.13;2.33;;;;;;;34.61;22.49;94668.84;10493814;28;20028;-73
2021/09/12 09:55:18;;;;;;;10.02;2.45;;;;;;;37.06;19.84;94656.91;10493671;28;20700;-73
2021/09/12 10:00:20;;;;;;;6.38;2.22;;;;;;;38.28;18.85;94654.13;10492657;28;20044;-74
2021/09/12 10:05:20;;;;;;;4.43;2.22;;;;;;;39.30;17.59;94655.44;10492921;28;20032;-73
2021/09/12 10:10:21;;;;;;;6.00;1.97;;;;;;;39.70;18.35;94647.44;10492349;28;20017;-74
2021/09/12 10:15:25;;;;;;;3.33;2.08;;;;;;;40.33;17.68;94634.63;10492012;28;20020;-74
2021/09/12 10:20:28;;;;;;;8.43;2.30;;;;;;;40.47;18.64;94624.75;10491284;28;20039;-73
2021/09/12 10:25:54;;;;;;;10.30;2.42;;;;;;;41.14;17.43;94624.09;10492014;28;20041;-74
2021/09/12 10:30:55;;;;;;;3.38;2.03;;;;;;;40.78;18.15;94611.72;10492457;28;20095;-74
2021/09/12 10:35:57;;;;;;;5.40;2.58;;;;;;;41.55;17.61;94620.94;10491713;28;20095;-74
2021/09/12 10:41:03;;;;;;;10.88;3.30;;;;;;;41.69;17.52;94608.91;10491501;28;20380;-74
2021/09/12 10:46:04;;;;;;;5.72;2.17;;;;;;;41.41;17.52;94608.31;10491389;28;20403;-74
2021/09/12 10:51:07;;;;;;;3.63;2.10;;;;;;;42.11;16.87;94605.13;10490922;28;20028;-74
2021/09/12 10:56:07;;;;;;;6.10;2.13;;;;;;;40.30;18.07;94596.16;10491269;28;20024;-74
2021/09/12 11:01:11;;;;;;;11.03;2.57;;;;;;;40.61;17.61;94602.81;10489718;28;20044;-74
2021/09/12 11:06:15;;;;;;;5.63;2.10;;;;;;;40.83;17.09;94597.75;10490840;28;20376;-74
2021/09/12 11:11:16;;;;;;;4.43;1.90;;;;;;;41.60;16.84;94594.84;10490274;28;20024;-74
2021/09/12 11:16:18;;;;;;;4.22;2.22;;;;;;;40.73;17.28;94587.75;10489543;28;20504;-74
2021/09/12 11:21:27;;;;;;;5.68;2.30;;;;;;;38.26;19.02;94581.56;10488750;28;20025;-74
2021/09/12 11:26:36;;;;;;;7.75;2.88;;;;;;;34.08;21.89;94582.22;10487803;28;20065;-73
2021/09/12 11:31:37;;;;;;;9.90;3.47;;;;;;;31.89;24.71;94583.66;10488037;28;20029;-74
2021/09/12 11:36:57;;;;;;;5.40;3.05;;;;;;;30.28;27.77;94577.06;10487725;28;20083;-74
2021/09/12 11:42:02;;;;;;;4.25;2.92;;;;;;;28.44;28.07;94582.88;10487118;28;20028;-73
2021/09/12 11:47:08;;;;;;;6.75;3.35;;;;;;;27.83;29.39;94571.63;10487359;28;20025;-73
2021/09/12 11:52:09;;;;;;;8.32;3.95;;;;;;;26.91;30.07;94578.97;10486256;28;20134;-73
2021/09/12 11:57:13;;;;;;;10.25;3.80;;;;;;;26.77;30.73;94563.09;10485248;28;20035;-73
2021/09/12 12:02:16;;;;;;;9.13;4.35;;;;;;;26.50;31.14;94565.19;10476983;28;20040;-75
2021/09/12 12:07:18;;;;;;;4.97;3.17;;;;;;;26.83;30.86;94567.06;10448273;28;20032;-74
2021/09/12 12:12:20;;;;;;;4.63;2.00;;;;;;;26.62;28.50;94556.63;10486397;28;20031;-74
2021/09/12 12:17:22;;;;;;;8.13;2.75;;;;;;;26.74;29.64;94559.13;10486196;28;20036;-74
2021/09/12 12:22:44;;;;;;;6.47;3.13;;;;;;;26.92;31.64;94552.97;10457654;28;20032;-75
2021/09/12 12:27:44;;;;;;;8.68;3.35;;;;;;;27.14;31.40;94553.91;10450750;28;20029;-72
2021/09/12 12:32:45;;;;;;;5.23;3.20;;;;;;;27.54;31.09;94551.38;10449036;28;20129;-73
2021/09/12 12:37:46;;;;;;;4.00;2.70;;;;;;;27.44;29.83;94550.94;10486920;28;20032;-75
2021/09/12 12:42:49;;;;;;;11.05;4.68;;;;;;;27.02;31.51;94546.72;10491365;28;20035;-75
2021/09/12 12:48:11;;;;;;;9.50;3.30;;;;;;;26.53;30.37;94534.13;10495635;28;20028;-73
2021/09/12 12:58:25;;;;;;;10.00;4.50;;;;;;;26.39;30.65;94534.78;10494370;28;20080;-73
2021/09/12 13:03:26;;;;;;;8.05;4.53;;;;;;;26.09;31.85;94533.72;10494422;28;20556;-72
2021/09/12 13:08:27;;;;;;;9.65;4.78;;;;;;;26.08;32.46;94529.38;10494819;28;20029;-73
2021/09/12 13:13:28;;;;;;;8.38;4.97;;;;;;;25.95;32.48;94532.75;10493867;28;20114;-73
2021/09/12 13:18:28;;;;;;;8.10;5.53;;;;;;;26.07;32.26;94522.28;10494041;28;20028;-75
2021/09/12 13:23:29;;;;;;;10.90;4.45;;;;;;;25.98;32.73;94521.75;10492705;28;20016;-74
2021/09/12 13:28:29;;;;;;;8.13;5.37;;;;;;;25.97;33.17;94525.69;10494157;28;20025;-73
2021/09/12 13:33:31;;;;;;;12.27;4.83;;;;;;;25.94;31.66;94515.41;10493571;28;20027;-74
2021/09/12 13:38:31;;;;;;;17.42;5.20;;;;;;;25.84;32.34;94513.34;10493394;28;20480;-73
2021/09/12 13:43:32;;;;;;;9.98;4.93;;;;;;;25.89;32.49;94504.78;10491768;28;20033;-74
2021/09/12 13:48:32;;;;;;;15.13;5.53;;;;;;;25.98;32.88;94508.00;10492915;28;20035;-73
2021/09/12 13:53:33;;;;;;;6.90;4.77;;;;;;;25.91;33.20;94505.16;10481168;28;20025;-73
2021/09/12 13:58:33;;;;;;;9.20;4.07;;;;;;;25.77;32.70;94500.31;10492406;28;20109;-74
2021/09/12 14:03:34;;;;;;;7.57;5.17;;;;;;;25.69;33.83;94506.91;10460472;28;20476;-73
2021/09/12 14:08:34;;;;;;;6.27;4.20;;;;;;;25.66;33.37;94491.13;10450788;28;20032;-72
2021/09/12 14:13:34;;;;;;;9.20;4.50;;;;;;;25.62;33.76;94498.56;10450983;28;20028;-72
2021/09/12 14:18:35;;;;;;;12.20;5.13;;;;;;;25.54;34.69;94500.44;10450195;28;20074;-72
2021/09/12 14:23:35;;;;;;;7.97;3.90;;;;;;;25.42;34.48;94501.47;10464377;28;20029;-72
2021/09/12 14:28:36;;;;;;;7.20;4.73;;;;;;;25.35;35.14;94504.16;10491412;28;20778;-73
2021/09/12 14:33:36;;;;;;;7.50;4.50;;;;;;;25.34;35.09;94503.34;10491312;28;20052;-74
2021/09/12 14:38:37;;;;;;;8.32;3.92;;;;;;;25.13;34.74;94503.84;10491398;28;20024;-76
2021/09/12 14:43:37;;;;;;;9.50;4.67;;;;;;;24.99;35.09;94504.44;10488447;28;20086;-72
2021/09/12 14:48:37;;;;;;;10.50;5.30;;;;;;;24.76;35.26;94510.00;10453980;28;20021;-72
2021/09/12 14:53:38;;;;;;;9.90;4.33;;;;;;;24.46;35.47;94513.44;10447799;28;20419;-72
2021/09/12 14:58:38;;;;;;;11.02;5.53;;;;;;;24.42;36.43;94507.09;10449213;28;20040;-72
2021/09/12 15:03:39;;;;;;;12.40;5.10;;;;;;;24.36;36.29;94512.09;10444877;28;20025;-71
2021/09/12 15:08:39;;;;;;;8.60;4.97;;;;;;;24.27;36.50;94519.00;10445252;28;20044;-72
2021/09/12 15:13:42;;;;;;;9.83;5.57;;;;;;;24.16;37.17;94516.84;10446357;28;20299;-71
2021/09/12 15:18:43;;;;;;;13.63;5.40;;;;;;;24.17;36.78;94518.44;10446264;28;20641;-71
2021/09/12 15:23:43;;;;;;;15.27;7.03;;;;;;;24.11;36.79;94511.66;10447329;28;20112;-72
2021/09/12 15:28:43;;;;;;;16.60;7.27;;;;;;;23.97;37.35;94520.44;10447978;28;20090;-71
2021/09/12 15:33:44;;;;;;;10.57;5.60;;;;;;;23.99;37.34;94520.88;10446869;28;20017;-71
2021/09/12 15:38:44;;;;;;;16.97;7.47;;;;;;;23.96;37.61;94520.78;10455020;28;20035;-72
2021/09/12 15:43:44;;;;;;;16.17;6.80;;;;;;;23.81;37.71;94516.97;10479629;28;20028;-72
2021/09/12 15:48:45;;;;;;;17.07;7.70;;;;;;;23.79;38.51;94516.53;10477763;28;20289;-72
2021/09/12 15:53:45;;;;;;;13.70;7.03;;;;;;;23.69;38.97;94526.16;10470657;28;20081;-72
2021/09/12 15:58:45;;;;;;;15.03;7.50;;;;;;;23.47;39.87;94519.44;10460484;28;20466;-72
2021/09/12 16:03:46;;;;;;;10.57;6.53;;;;;;;23.28;38.80;94518.28;10477774;28;20037;-72
2021/09/12 16:08:46;;;;;;;28.60;8.50;;;;;;;23.12;38.56;94510.13;10445872;28;20043;-72
2021/09/12 16:13:49;;;;;;;10.47;6.80;;;;;;;22.96;39.82;94515.63;10445738;28;20276;-72
2021/09/12 16:18:50;;;;;;;12.10;7.45;;;;;;;22.65;39.53;94520.03;10461110;28;20048;-72
2021/09/12 16:23:50;;;;;;;10.77;6.83;;;;;;;22.51;40.65;94517.75;10482850;28;20139;-72
2021/09/12 16:28:50;;;;;;;11.90;6.57;;;;;;;22.32;41.16;94531.31;10453403;28;20032;-72
2021/09/12 16:33:51;;;;;;;12.10;7.23;;;;;;;22.21;42.24;94525.56;10445979;28;20033;-72
2021/09/12 16:38:51;;;;;;;11.63;7.17;;;;;;;22.06;41.56;94523.63;10445221;28;20275;-72
2021/09/12 16:43:57;;;;;;;18.57;7.70;;;;;;;21.88;45.51;94534.09;10455547;28;20035;-71
2021/09/12 16:48:58;;;;;;;27.15;10.82;;;;;;;21.46;45.84;94532.53;10486708;28;20035;-72
2021/09/12 16:53:58;;;;;;;27.80;12.47;;;;;;;21.20;49.51;94528.31;10486145;28;20515;-71
2021/09/12 16:58:58;;;;;;;28.27;12.23;;;;;;;20.99;51.05;94528.47;10484569;28;20079;-72
2021/09/12 17:04:00;;;;;;;24.70;12.43;;;;;;;20.92;54.00;94537.25;10486257;28;20029;-72
2021/09/12 17:09:00;;;;;;;20.25;10.80;;;;;;;20.86;56.25;94546.84;10484520;28;20063;-72
2021/09/12 17:14:00;;;;;;;31.77;12.33;;;;;;;20.47;58.17;94544.44;10477467;28;20115;-72
2021/09/12 17:19:01;;;;;;;18.80;11.20;;;;;;;20.26;59.10;94552.72;10476890;28;20025;-71
2021/09/12 17:24:01;;;;;;;21.07;11.63;;;;;;;20.09;59.49;94545.53;10480223;28;20021;-72
2021/09/12 17:29:02;;;;;;;18.50;10.60;;;;;;;20.00;61.33;94550.28;10484172;28;20024;-72
2021/09/12 17:34:05;;;;;;;15.60;9.80;;;;;;;19.77;64.19;94560.75;10485574;28;20008;-72
2021/09/12 17:39:06;;;;;;;24.73;10.98;;;;;;;19.66;66.97;94567.75;10478391;28;20895;-72
2021/09/12 17:44:07;;;;;;;26.42;11.23;;;;;;;19.59;68.92;94574.56;10480796;28;20028;-72
2021/09/12 17:49:07;;;;;;;26.43;11.83;;;;;;;19.44;70.27;94577.91;10490689;28;20395;-72
2021/09/12 17:54:08;;;;;;;25.53;12.17;;;;;;;19.23;74.55;94577.91;10488922;28;20273;-72
2021/09/12 17:59:09;;;;;;;23.50;11.77;;;;;;;19.36;78.91;94584.22;10487712;28;20094;-72
2021/09/12 18:04:09;;;;;;;36.23;11.73;;;;;;;19.30;80.36;94586.34;10490109;28;20085;-73
2021/09/12 18:09:09;;;;;;;41.63;14.83;;;;;;;19.20;78.16;94587.53;10489340;28;20028;-72
2021/09/12 18:14:12;;;;;;;29.33;12.77;;;;;;;19.15;80.06;94593.16;10488021;28;20023;-72
2021/09/12 18:19:12;;;;;;;16.08;9.43;;;;;;;19.02;70.30;94596.94;10489516;28;20071;-72
2021/09/12 18:24:12;;;;;;;25.60;11.40;;;;;;;18.90;74.81;94601.16;10487391;28;20037;-72
2021/09/12 18:29:13;;;;;;;23.83;11.83;;;;;;;18.75;76.31;94605.25;10450819;28;20785;-72
2021/09/12 18:34:14;;;;;;;28.83;12.98;;;;;;;18.49;80.90;94604.53;10467347;28;20267;-72
2021/09/12 18:39:14;;;;;;;21.98;11.82;;;;;;;18.43;79.54;94614.81;10447334;28;20044;-71
2021/09/12 18:44:15;;;;;;;24.30;12.17;;;;;;;18.22;79.30;94610.09;10471784;28;20028;-71
2021/09/12 18:49:15;;;;;;;20.67;11.70;;;;;;;18.16;80.50;94613.31;10488004;28;20028;-72
2021/09/12 18:54:15;;;;;;;25.37;12.13;;;;;;;17.97;81.08;94610.94;10489016;28;20021;-72
2021/09/12 18:59:19;;;;;;;22.50;11.77;;;;;;;17.90;81.24;94611.41;10488257;28;20048;-71
2021/09/12 19:04:20;;;;;;;29.80;12.50;;;;;;;17.82;81.26;94623.91;10475231;28;20397;-71
2021/09/12 19:09:20;;;;;;;25.37;12.13;;;;;;;17.76;78.24;94626.00;10451323;28;20593;-71
2021/09/12 19:14:24;;;;;;;15.50;9.37;;;;;;;17.77;73.57;94627.56;10446952;28;20102;-71
2021/09/12 19:19:24;;;;;;;20.65;11.55;;;;;;;17.68;79.93;94629.53;10447236;28;20025;-71
2021/09/12 19:24:25;;;;;;;21.87;11.67;;;;;;;17.54;82.19;94628.88;10458588;28;20484;-71
2021/09/12 19:29:25;;;;;;;19.13;12.13;;;;;;;17.42;82.76;94634.94;10458924;28;20274;-72
2021/09/12 19:34:25;;;;;;;19.03;10.43;;;;;;;17.41;76.73;94633.34;10483643;28;20021;-71
2021/09/12 19:39:26;;;;;;;19.48;10.38;;;;;;;17.37;77.50;94648.69;10487920;28;20024;-72
2021/09/12 19:44:26;;;;;;;19.73;11.20;;;;;;;17.32;79.61;94636.06;10486957;28;20020;-72
2021/09/12 19:49:28;;;;;;;18.83;11.63;;;;;;;17.22;82.52;94637.16;10487164;28;20056;-71
2021/09/12 19:54:29;;;;;;;23.95;11.27;;;;;;;17.14;81.65;94637.94;10486949;28;20131;-71
2021/09/12 19:59:29;;;;;;;22.47;11.10;;;;;;;17.15;80.22;94641.47;10485170;28;20521;-72
2021/09/12 20:04:30;;;;;;;15.93;10.80;;;;;;;17.12;79.09;94642.09;10485492;28;20294;-72
2021/09/12 20:09:30;;;;;;;15.85;9.02;;;;;;;17.05;78.38;94643.38;10485462;28;20028;-71
2021/09/12 20:14:30;;;;;;;16.10;10.17;;;;;;;16.99;79.76;94641.91;10486525;28;20135;-71
2021/09/12 20:19:32;;;;;;;15.73;9.93;;;;;;;17.00;80.13;94640.00;10486186;28;20395;-71
2021/09/12 20:24:34;;;;;;;17.67;9.48;;;;;;;17.03;79.32;94642.09;10486282;28;20286;-71
2021/09/12 20:29:35;;;;;;;16.58;10.00;;;;;;;16.95;81.01;94651.81;10485797;28;20476;-71
2021/09/12 20:34:35;;;;;;;26.75;10.38;;;;;;;16.87;81.94;94658.78;10485770;28;20020;-71
2021/09/12 20:39:36;;;;;;;11.25;8.85;;;;;;;16.90;81.46;94652.75;10486396;28;20086;-71
2021/09/12 20:44:36;;;;;;;16.52;9.40;;;;;;;16.87;80.31;94653.38;10485614;28;20614;-71
2021/09/12 20:49:37;;;;;;;18.58;9.32;;;;;;;16.84;79.16;94653.19;10485703;28;20024;-71
2021/09/12 20:54:37;;;;;;;16.85;9.75;;;;;;;16.73;81.23;94664.34;10484647;28;20024;-71
2021/09/12 20:59:38;;;;;;;16.17;9.13;;;;;;;16.67;82.60;94664.78;10484314;28;20048;-70
2021/09/12 21:04:38;;;;;;;18.80;9.90;;;;;;;16.57;80.98;94663.94;10490703;28;20028;-72
2021/09/12 21:09:38;;;;;;;16.75;8.65;;;;;;;16.56;81.32;94661.53;10493069;28;20024;-71
2021/09/12 21:14:39;;;;;;;18.73;10.40;;;;;;;16.48;79.56;94657.69;10493026;28;20024;-72
2021/09/12 21:19:39;;;;;;;18.80;9.23;;;;;;;16.51;77.69;94657.06;10492810;28;20032;-72
2021/09/12 21:24:40;;;;;;;15.70;9.40;;;;;;;16.53;78.76;94657.53;10492808;28;20291;-71
2021/09/12 21:29:40;;;;;;;15.27;8.47;;;;;;;16.50;78.74;94652.75;10493175;28;20040;-72
2021/09/12 21:34:40;;;;;;;14.67;9.23;;;;;;;16.41;80.13;94651.91;10491458;28;20387;-72
2021/09/12 21:39:41;;;;;;;20.40;9.53;;;;;;;16.41;78.67;94646.50;10491369;28;20024;-72
2021/09/12 21:44:41;;;;;;;20.90;8.38;;;;;;;16.37;79.09;94648.22;10490833;28;20028;-72
2021/09/12 21:49:42;;;;;;;17.38;8.82;;;;;;;16.31;86.31;94660.31;10490312;28;20024;-71
2021/09/12 21:54:42;;;;;;;16.75;9.82;;;;;;;16.26;90.55;94655.03;10491259;28;20586;-72
2021/09/12 21:59:42;;;;;;;13.90;8.70;;;;;;;16.14;95.07;94658.31;10491454;28;20246;-71
2021/09/12 22:04:43;;;;;;;22.83;10.53;;;;;;;16.03;94.96;94657.75;10491703;28;20282;-72
2021/09/12 22:09:43;;;;;;;15.53;10.00;;;;;;;15.89;99.18;94658.63;10491236;28;20083;-72
2021/09/12 22:14:43;;;;;;;14.70;10.87;;;;;;;15.67;100.00;94658.59;10489485;28;20273;-71
2021/09/12 22:19:44;;;;;;;16.08;9.50;;;;;;;15.48;100.00;94667.69;10491185;28;20127;-72
2021/09/12 22:24:44;;;;;;;13.90;9.63;;;;;;;15.36;100.00;94662.00;10483825;28;20029;-71
2021/09/12 22:29:44;;;;;;;22.07;10.63;;;;;;;15.13;100.00;94664.66;10489276;28;20036;-71
2021/09/12 22:34:46;;;;;;;19.90;10.37;;;;;;;14.97;100.00;94672.31;10476659;28;20104;-70
2021/09/12 22:39:46;;;;;;;17.77;10.02;;;;;;;14.80;100.00;94672.91;10448773;28;20025;-71
2021/09/12 22:44:47;;;;;;;26.67;11.67;;;;;;;14.75;100.00;94675.72;10448657;28;20396;-71
2021/09/12 22:49:47;;;;;;;17.45;10.98;;;;;;;14.55;100.00;94667.97;10448737;28;20267;-71
2021/09/12 22:54:48;;;;;;;24.50;12.80;;;;;;;14.50;100.00;94658.06;10448180;28;20112;-72
2021/09/12 22:59:48;;;;;;;23.23;12.10;;;;;;;14.51;100.00;94663.16;10447695;28;20107;-72
2021/09/12 23:04:48;;;;;;;20.70;13.07;;;;;;;14.56;100.00;94661.47;10447551;28;20375;-72